Mendota, CA (93640)

9:54 PM PDT on May 22, 2017 (GMT -0700)
Manning & Napa Shop | | Change Station
Active Advisory: Hydrologic Statement

Elev 177 ft 36.60 °N, 120.23 °W | Updated 1 second ago

Clear
Clear
79.7 °F
Feels Like 79 °F
N
4.3
Wind Variable Wind from West
Gusts 6.0 mph

Today
High -- | Low -- °F
--% Chance of Precip.
Yesterday
High -- | Low -- °F
Precip. -- in
Pressure 29.85 in
Visibility 10.0 miles
Clouds Clear
Heat Index 79 °F
Dew Point 50 °F
Humidity 36%
Rainfall 0.00 in
Snow Depth Not available.
5:48 AM 8:08 PM
Waning Crescent, 10% visible
METAR KMAE 230353Z AUTO 30005KT 10SM CLR 27/10 A2986 RMK AO2 SLP107 T02670100
Pressure 29.85 in
Visibility 10.0 miles
Clouds Clear
Heat Index 79 °F
Dew Point 50 °F
Humidity 36%
Rainfall 0.00 in
Snow Depth Not available.
5:48 AM 8:08 PM
Waning Crescent, 10% visible
METAR KMAE 230353Z AUTO 30005KT 10SM CLR 27/10 A2986 RMK AO2 SLP107 T02670100

Get Your Daily Forecast Email!

Thanks for signing up!

Be on the lookout for a verification email in your inbox.

You'll start receiving severe weather alerts in your inbox..

×

10-Day Weather Forecast

Almanac

Astronomy

May. 22, 2017 Rise Set
Actual Time
Civil Twilight
Nautical Twilight
Astronomical Twilight
Moon
Length of Visible Light
Length of Day
Tomorrow will be .
, % of the Moon is Illuminated

Today's Extremes

State Highs State Lows

Community

WunderPhotos

Category 6

Welcome to Category 6. This is the collective home for Weather Underground's featured writeups by Dr. Jeff Masters (right), Bob Henson (left), Chris Burt, and other regular contributors.

Nearby

Air Quality

  Air Quality AQ Index Pollutant
Not available.

Snow Depth

Station Depth Elevation

Earthquake Activity

City Distance Mag. Time & Date
Minimum magnitude displayed is 2.5.

Coastal Water Temperatures

Place Temperature

Stations

Nearby Weather Stations

Station Location Temp. Windchill Dew Point Humidity Wind Precip. Elev Updated Type
                   

Watches & Warnings

Hydrologic Statement
Issued: 7:23 AM PDT May. 22, 2017 – National Weather Service

Forecast information for
Merced River at Merced River at Stevinson
* at 7:00 am Monday the stage was 64.3 feet
* no flooding is currently forecast.
* Forecast to fluctuate near 64.0 ft thru tomorrow evening.
* Flood stage 71.0 ft
* monitor stage 67.0 ft



Lat... Lon 3743 12100 3742 12084 3732 12082 3728 12093



Bso